Flight Track Log - Related Links

Times and Time Zones

All times are in EDT time to prevent confusion due to time zone crossing. See the ADR726 flight status page for this flight to view local times or setup timezone preferences in your user account.

Time Position Orientation Groundspeed Altitude Reporting Facility
EDT Latitude Longitude Course Direction KTS MPH feet Rate Location/Type
Tue 05:27:00 PM 45.7900 14.9808 140° Southeast  Level Estimated
Tue 05:28:00 PM 45.7174 15.0673 140° Southeast  Level Estimated
Tue 05:29:00 PM 45.6449 15.1534 140° Southeast  Level Estimated
Tue 05:30:00 PM 45.5722 15.2394 140° Southeast  Level Estimated
Tue 05:31:00 PM 45.4995 15.3251 140° Southeast  Level Estimated
Tue 05:32:00 PM 45.4267 15.4107 140° Southeast  Level Estimated
Tue 05:33:00 PM 45.3539 15.4960 141° Southeast  Level Estimated
Tue 05:34:00 PM 45.2810 15.5810 141° Southeast  Level Estimated
Tue 05:35:00 PM 45.2080 15.6659 141° Southeast  Level Estimated
Tue 05:36:00 PM 45.1350 15.7506 141° Southeast  Level Estimated
Tue 05:37:00 PM 45.0619 15.8350 141° Southeast  Level Estimated
Tue 05:38:00 PM 44.9887 15.9192 141° Southeast  Level Estimated
Tue 05:39:00 PM 44.9155 16.0032 141° Southeast  Level Estimated
Tue 05:40:00 PM 44.8423 16.0870 141° Southeast  Level Estimated
Tue 05:41:00 PM 44.7689 16.1705 141° Southeast  Level Estimated
Tue 05:42:00 PM 44.6955 16.2539 141° Southeast  Level Estimated
Tue 05:43:00 PM 44.6221 16.3370 141° Southeast  Level Estimated
Tue 05:44:00 PM 44.5485 16.4200 141° Southeast  Level Estimated
Tue 05:45:00 PM 44.4749 16.5027 141° Southeast  Level Estimated
Tue 05:46:00 PM 44.4013 16.5852 141° Southeast  Level Estimated
Tue 05:47:00 PM 44.3276 16.6675 141° Southeast  Level Estimated
Tue 05:48:00 PM 44.2538 16.7497 141° Southeast  Level Estimated
Tue 05:49:00 PM 44.1800 16.8316 141° Southeast  Level Estimated
Tue 05:50:00 PM 44.1062 16.9133 142° Southeast  Level Estimated
Tue 05:51:00 PM 44.0322 16.9947 142° Southeast  Level Estimated
Tue 05:52:00 PM 43.9582 17.0760 142° Southeast  Level Estimated
Tue 05:53:00 PM 43.8842 17.1571 142° Southeast  Level Estimated
Tue 05:54:00 PM 43.8101 17.2380 142° Southeast  Level Estimated
Tue 05:55:00 PM 43.7359 17.3187 142° Southeast  Level Estimated
Tue 05:56:00 PM 43.6617 17.3992 142° Southeast  Level Estimated
Tue 05:57:00 PM 43.5874 17.4795 142° Southeast  Level Estimated
Tue 05:58:00 PM 43.5131 17.5595 142° Southeast  Level Estimated
Tue 05:59:00 PM 43.4387 17.6394 142° Southeast  Level Estimated
Tue 06:00:00 PM 43.3643 17.7191 142° Southeast  Level Estimated
Tue 06:01:00 PM 43.2898 17.7986 142° Southeast  Level Estimated
Tue 06:02:00 PM 43.2152 17.8779 142° Southeast  Level Estimated
Tue 06:03:00 PM 43.1406 17.9570 142° Southeast  Level Estimated
Tue 06:04:00 PM 43.0660 18.0360 142° Southeast  Level Estimated
Tue 06:05:00 PM 42.9913 18.1147 142° Southeast  Level Estimated
Tue 06:06:00 PM 42.9165 18.1932 142° Southeast  Level Estimated
Tue 06:07:00 PM 42.8417 18.2716 142° Southeast  Level Estimated
Tue 06:08:00 PM 42.7668 18.3497 143° Southeast  Level Estimated
Tue 06:09:00 PM 42.6919 18.4277 143° Southeast  Level Estimated
Tue 06:10:00 PM 42.6169 18.5055 143° Southeast  Level Estimated
Tue 06:11:00 PM 42.5419 18.5830 143° Southeast  Level Estimated
Tue 06:12:00 PM 42.4668 18.6604 143° Southeast  Level Estimated
Tue 06:13:00 PM 42.3916 18.7377 143° Southeast  Level Estimated
Tue 06:14:00 PM 42.3164 18.8147 143° Southeast  Level Estimated
Tue 06:15:00 PM 42.2412 18.8916 143° Southeast  Level Estimated
Tue 06:16:00 PM 42.1659 18.9682 143° Southeast  Level Estimated
Tue 06:17:00 PM 42.0906 19.0447 143° Southeast  Level Estimated
Tue 06:18:00 PM 42.0152 19.1210 143° Southeast  Level Estimated
Tue 06:19:00 PM 41.9398 19.1971 143° Southeast  Level Estimated
Tue 06:20:00 PM 41.8643 19.2731 143° Southeast  Level Estimated
Tue 06:21:00 PM 41.7887 19.3488 143° Southeast  Level Estimated
Tue 06:22:00 PM 41.7131 19.4244 143° Southeast  Level Estimated
Tue 06:23:00 PM 41.6375 19.4998 143° Southeast  Level Estimated
Tue 06:24:00 PM 41.5618 19.5751 143° Southeast  Level Estimated
Tue 06:25:00 PM 41.4861 19.6501 143° Southeast  Level Estimated
Tue 06:26:00 PM 41.4147 19.7206 143° Southeast  Level Estimated
Tue 06:27:00 PM 41.4147 19.7206 21° North  Level Estimated

Login

Don't have an account? Register now (free) for customized features, flight alerts, and more!